Time;durP1;ratioP1;P1;durP2;ratioP2;P2;SDS_P1;SDS_P2;PMS_P1;PMS_P2;Temp;Humidity;BMP_temperature;BMP_pressure;BME280_temperature;BME280_humidity;BME280_pressure;Samples;Min_cycle;Max_cycle;Signal;HPM_P1;HPM_P2
2023/07/24 00:02:02;;;;;;;8.75;6.03;;;16.80;99.90;;;;;;5077346;28;20049;-80
2023/07/24 00:04:30;;;;;;;8.02;5.63;;;16.80;99.90;;;;;;5075723;28;20506;-80
2023/07/24 00:06:56;;;;;;;9.60;6.30;;;16.80;99.90;;;;;;5067924;28;20048;-80
2023/07/24 00:09:22;;;;;;;9.48;6.00;;;16.70;99.90;;;;;;5085062;28;20074;-80
2023/07/24 00:11:47;;;;;;;7.07;6.10;;;16.80;99.90;;;;;;5071868;28;20127;-80
2023/07/24 00:14:13;;;;;;;8.82;6.22;;;16.80;99.90;;;;;;5072279;28;20040;-80
2023/07/24 00:16:38;;;;;;;7.35;6.18;;;16.90;99.90;;;;;;5051913;28;20048;-80
2023/07/24 00:19:04;;;;;;;7.65;6.68;;;16.90;99.90;;;;;;5075833;28;20036;-80
2023/07/24 00:21:30;;;;;;;10.13;7.60;;;16.80;99.90;;;;;;5082715;28;20124;-80
2023/07/24 00:23:55;;;;;;;10.65;8.25;;;16.80;99.90;;;;;;5082909;28;20040;-80
2023/07/24 00:26:21;;;;;;;9.60;8.60;;;16.80;99.90;;;;;;5070449;28;20127;-81
2023/07/24 00:28:47;;;;;;;10.52;9.30;;;16.80;99.90;;;;;;5084531;28;20043;-80
2023/07/24 00:31:12;;;;;;;10.88;9.77;;;17.10;99.90;;;;;;5069259;28;20056;-80
2023/07/24 00:33:38;;;;;;;10.55;9.43;;;16.70;99.90;;;;;;5085896;28;20051;-80
2023/07/24 00:36:03;;;;;;;10.57;9.57;;;17.00;99.90;;;;;;5079981;28;20040;-81
2023/07/24 00:38:29;;;;;;;11.20;10.13;;;16.70;99.90;;;;;;5075583;28;20039;-80
2023/07/24 00:40:55;;;;;;;12.38;10.25;;;16.60;99.90;;;;;;5071139;28;20092;-81
2023/07/24 00:43:20;;;;;;;11.32;10.15;;;16.70;99.90;;;;;;5078826;28;20052;-80
2023/07/24 00:45:47;;;;;;;12.35;10.98;;;16.60;99.90;;;;;;5081471;28;20036;-80
2023/07/24 00:48:13;;;;;;;12.10;10.90;;;16.60;99.90;;;;;;5069757;28;20051;-81
2023/07/24 00:50:40;;;;;;;12.48;11.18;;;16.60;99.90;;;;;;5052929;28;20052;-81
2023/07/24 00:53:05;;;;;;;12.75;11.50;;;16.50;99.90;;;;;;5053303;28;20040;-81
2023/07/24 00:55:32;;;;;;;12.70;11.40;;;16.60;99.90;;;;;;5076384;28;20518;-80
2023/07/24 00:57:59;;;;;;;12.32;11.13;;;16.60;99.90;;;;;;5070200;28;20082;-80
2023/07/24 01:00:24;;;;;;;14.15;11.25;;;16.50;99.90;;;;;;5069550;28;20051;-80
2023/07/24 01:02:51;;;;;;;13.45;11.48;;;16.80;99.90;;;;;;5072365;28;20135;-81
2023/07/24 01:05:17;;;;;;;12.05;10.90;;;16.50;99.90;;;;;;5078586;28;20055;-81
2023/07/24 01:07:43;;;;;;;11.55;10.40;;;16.50;99.90;;;;;;5068856;28;20044;-80
2023/07/24 01:10:09;;;;;;;12.00;10.80;;;16.40;99.90;;;;;;5088704;28;20255;-80
2023/07/24 01:12:53;;;;;;;12.40;10.93;;;16.50;99.90;;;;;;5072302;28;20232;-81
2023/07/24 01:15:28;;;;;;;12.27;11.07;;;16.40;99.90;;;;;;5073667;28;20044;-80
2023/07/24 01:17:59;;;;;;;11.93;10.70;;;16.40;99.90;;;;;;5072528;28;20079;-80
2023/07/24 01:20:28;;;;;;;11.65;10.00;;;16.40;99.90;;;;;;5067201;28;20045;-80
2023/07/24 01:23:33;;;;;;;11.60;10.43;;;16.50;99.90;;;;;;5078464;28;20102;-80
2023/07/24 01:26:02;;;;;;;12.15;10.95;;;16.30;99.90;;;;;;5067863;28;20055;-80
2023/07/24 01:28:28;;;;;;;11.18;10.07;;;16.30;99.90;;;;;;5067715;28;20048;-81
2023/07/24 01:30:54;;;;;;;10.93;9.77;;;16.30;99.90;;;;;;5066448;28;20056;-80
2023/07/24 01:33:20;;;;;;;10.70;9.70;;;16.30;99.90;;;;;;5068955;28;20044;-80
2023/07/24 01:35:53;;;;;;;11.63;10.52;;;16.30;99.90;;;;;;5080232;28;20044;-81
2023/07/24 01:38:19;;;;;;;11.35;10.23;;;16.30;99.90;;;;;;5075281;28;20048;-80
2023/07/24 01:40:45;;;;;;;11.77;10.57;;;16.30;99.90;;;;;;5057987;28;20414;-80
2023/07/24 01:43:11;;;;;;;11.27;10.20;;;16.30;99.90;;;;;;5069853;28;20048;-80
2023/07/24 01:45:36;;;;;;;12.52;10.27;;;16.40;99.90;;;;;;5068182;28;20057;-80
2023/07/24 01:48:05;;;;;;;10.82;9.82;;;16.40;99.90;;;;;;5050418;28;20040;-80
2023/07/24 01:50:30;;;;;;;11.60;10.43;;;16.40;99.90;;;;;;5079188;28;20056;-80
2023/07/24 01:52:56;;;;;;;11.07;9.98;;;16.40;99.90;;;;;;5069185;28;20048;-81
2023/07/24 01:55:22;;;;;;;10.70;9.70;;;16.40;99.90;;;;;;5084537;28;20028;-81
2023/07/24 01:57:47;;;;;;;10.95;9.90;;;16.40;99.90;;;;;;5070064;28;20052;-81
2023/07/24 02:00:13;;;;;;;11.70;9.80;;;16.40;99.90;;;;;;5055841;28;20074;-80
2023/07/24 02:02:38;;;;;;;10.60;9.50;;;16.40;99.90;;;;;;5068837;28;20071;-80
2023/07/24 02:05:05;;;;;;;11.68;9.73;;;16.40;99.90;;;;;;5077354;28;20136;-80
2023/07/24 02:07:30;;;;;;;10.52;9.35;;;16.40;99.90;;;;;;5073702;28;20048;-80
2023/07/24 02:09:56;;;;;;;10.50;9.50;;;16.40;99.90;;;;;;5078649;28;20040;-80
2023/07/24 02:12:21;;;;;;;10.27;9.27;;;16.40;99.90;;;;;;5073337;28;20040;-80
2023/07/24 02:14:51;;;;;;;10.35;9.35;;;16.40;99.90;;;;;;5078752;28;20044;-81
2023/07/24 02:17:17;;;;;;;9.88;8.88;;;16.40;99.90;;;;;;5076586;28;20135;-80
2023/07/24 02:19:43;;;;;;;11.98;9.63;;;16.40;99.90;;;;;;5080194;28;20044;-81
2023/07/24 02:22:09;;;;;;;9.43;8.52;;;16.40;99.90;;;;;;5050699;28;20044;-80
2023/07/24 02:24:35;;;;;;;9.95;8.95;;;16.50;99.90;;;;;;5075939;28;20035;-80
2023/07/24 02:27:00;;;;;;;9.95;8.95;;;16.40;99.90;;;;;;5074495;28;20053;-80
2023/07/24 02:29:26;;;;;;;9.40;8.50;;;16.40;99.90;;;;;;5087694;28;20043;-80
2023/07/24 02:31:53;;;;;;;9.18;8.35;;;16.60;99.90;;;;;;5074574;28;20056;-80
2023/07/24 02:34:24;;;;;;;10.50;9.13;;;16.40;99.90;;;;;;5081224;28;20044;-81
2023/07/24 02:36:49;;;;;;;10.20;9.15;;;16.40;99.90;;;;;;5083978;28;20052;-80
2023/07/24 02:39:15;;;;;;;10.00;8.63;;;16.60;99.90;;;;;;5068104;28;20169;-80
2023/07/24 02:41:41;;;;;;;8.57;7.78;;;16.50;99.90;;;;;;5090852;28;20336;-80
2023/07/24 02:44:09;;;;;;;8.43;7.63;;;16.50;99.90;;;;;;5039346;28;20506;-80
2023/07/24 02:46:35;;;;;;;9.30;8.40;;;16.50;99.90;;;;;;5070163;28;20048;-80
2023/07/24 02:49:00;;;;;;;8.95;8.15;;;16.50;99.90;;;;;;5070332;28;20085;-81
2023/07/24 02:51:26;;;;;;;9.45;8.45;;;16.50;99.90;;;;;;5084215;28;20059;-81
2023/07/24 02:53:54;;;;;;;9.23;8.20;;;16.60;99.90;;;;;;5085574;28;20501;-81
2023/07/24 02:56:20;;;;;;;8.73;7.72;;;16.50;99.90;;;;;;5066550;28;20070;-81
2023/07/24 02:58:46;;;;;;;8.85;7.95;;;16.50;99.90;;;;;;5083642;28;20059;-80
2023/07/24 03:01:13;;;;;;;9.55;8.18;;;16.50;99.90;;;;;;5074462;28;20036;-80
2023/07/24 03:03:40;;;;;;;8.93;7.10;;;16.60;99.90;;;;;;5084384;28;20036;-80
2023/07/24 03:06:06;;;;;;;8.50;7.63;;;16.60;99.90;;;;;;5075258;28;20044;-81
2023/07/24 03:08:32;;;;;;;7.65;6.95;;;16.60;99.90;;;;;;5086722;28;20683;-80
2023/07/24 03:10:58;;;;;;;9.35;7.78;;;16.60;99.90;;;;;;5050930;28;20055;-80
2023/07/24 03:13:24;;;;;;;8.85;7.28;;;16.50;99.90;;;;;;5067609;28;20427;-81
2023/07/24 03:15:57;;;;;;;8.10;7.30;;;16.80;99.90;;;;;;5083255;28;20044;-80
2023/07/24 03:18:23;;;;;;;8.35;7.40;;;16.30;99.90;;;;;;5072815;28;20047;-80
2023/07/24 03:20:49;;;;;;;8.82;7.47;;;16.50;99.90;;;;;;5081975;28;20085;-80
2023/07/24 03:23:15;;;;;;;9.63;7.95;;;16.40;99.90;;;;;;5085759;28;20467;-80
2023/07/24 03:25:41;;;;;;;9.07;8.18;;;16.40;99.90;;;;;;5077864;28;20386;-81
2023/07/24 03:28:06;;;;;;;9.30;7.47;;;16.40;99.90;;;;;;5074698;28;20051;-80
2023/07/24 03:30:32;;;;;;;8.75;7.55;;;16.40;99.90;;;;;;5086353;28;20056;-80
2023/07/24 03:32:58;;;;;;;8.73;7.82;;;16.30;99.90;;;;;;5073737;28;20044;-80
2023/07/24 03:35:24;;;;;;;8.38;7.35;;;16.30;99.90;;;;;;5082174;28;20044;-81
2023/07/24 03:37:49;;;;;;;9.05;8.15;;;16.30;99.90;;;;;;5086567;28;20040;-80
2023/07/24 03:40:15;;;;;;;8.43;7.60;;;16.30;99.90;;;;;;5073196;28;20773;-81
2023/07/24 03:42:41;;;;;;;8.10;7.30;;;16.30;99.90;;;;;;5053119;28;20535;-81
2023/07/24 03:45:07;;;;;;;9.13;7.45;;;16.30;99.90;;;;;;5077818;28;20409;-80
2023/07/24 03:47:33;;;;;;;10.10;8.13;;;16.30;99.90;;;;;;5084477;28;20044;-80
2023/07/24 03:49:59;;;;;;;9.77;8.10;;;16.30;99.90;;;;;;5066986;28;20041;-81
2023/07/24 03:52:24;;;;;;;9.60;7.78;;;16.30;99.90;;;;;;5070061;28;20059;-81
2023/07/24 03:54:51;;;;;;;8.52;7.55;;;16.30;99.90;;;;;;5069103;28;20036;-81
2023/07/24 03:57:17;;;;;;;8.40;7.60;;;16.30;99.90;;;;;;5058141;28;20048;-81
2023/07/24 03:59:43;;;;;;;8.68;7.78;;;16.40;99.90;;;;;;5067749;28;20040;-81
2023/07/24 04:02:09;;;;;;;8.90;8.00;;;16.30;99.90;;;;;;5065554;28;20410;-81
2023/07/24 04:04:35;;;;;;;9.15;8.20;;;16.30;99.90;;;;;;5048218;28;21631;-81
2023/07/24 04:07:01;;;;;;;8.52;7.72;;;16.30;99.90;;;;;;5065494;28;20044;-81
2023/07/24 04:09:26;;;;;;;9.35;7.78;;;16.30;99.90;;;;;;5092221;28;20049;-80
2023/07/24 04:11:52;;;;;;;8.85;7.95;;;16.40;99.90;;;;;;5072681;28;20048;-81
2023/07/24 04:14:18;;;;;;;9.13;8.23;;;16.60;99.90;;;;;;5084125;28;20097;-80
2023/07/24 04:16:43;;;;;;;8.43;7.50;;;16.40;99.90;;;;;;5065376;28;20041;-80
2023/07/24 04:19:09;;;;;;;8.75;7.85;;;16.40;99.90;;;;;;5100067;28;20417;-81
2023/07/24 04:21:34;;;;;;;9.65;8.35;;;16.60;99.90;;;;;;5084578;28;20394;-80
2023/07/24 04:24:00;;;;;;;8.68;7.78;;;16.70;99.90;;;;;;5073392;28;20105;-80
2023/07/24 04:26:26;;;;;;;8.68;7.78;;;16.60;99.90;;;;;;5065562;28;20049;-80
2023/07/24 04:28:51;;;;;;;9.43;8.43;;;16.50;99.90;;;;;;5066129;28;20036;-81
2023/07/24 04:31:17;;;;;;;9.20;8.30;;;16.50;99.90;;;;;;5066451;28;20084;-80
2023/07/24 04:33:42;;;;;;;9.63;8.65;;;16.50;99.90;;;;;;5072767;28;20085;-80
2023/07/24 04:36:08;;;;;;;9.30;8.35;;;16.50;99.90;;;;;;5069828;28;20465;-81
2023/07/24 04:38:34;;;;;;;9.70;8.45;;;16.60;99.90;;;;;;5066155;28;20068;-81
2023/07/24 04:41:05;;;;;;;10.32;9.18;;;16.40;99.90;;;;;;5065334;28;20403;-81
2023/07/24 04:43:31;;;;;;;10.18;9.15;;;16.50;99.90;;;;;;5065787;28;20076;-81
2023/07/24 04:45:56;;;;;;;9.75;8.70;;;16.50;99.90;;;;;;5084214;28;20075;-81
2023/07/24 04:48:22;;;;;;;11.32;9.10;;;16.50;99.90;;;;;;5065763;28;20058;-80
2023/07/24 04:50:54;;;;;;;9.43;8.52;;;16.50;99.90;;;;;;5075466;28;20106;-81
2023/07/24 04:53:20;;;;;;;9.75;8.75;;;16.60;99.90;;;;;;5075983;28;20045;-81
2023/07/24 04:55:46;;;;;;;10.27;9.20;;;16.70;99.90;;;;;;5055290;28;20098;-82
2023/07/24 04:58:12;;;;;;;11.65;9.10;;;16.50;99.90;;;;;;5070451;28;20052;-81
2023/07/24 05:00:38;;;;;;;10.25;9.30;;;16.50;99.90;;;;;;5070861;28;20040;-80
2023/07/24 05:03:03;;;;;;;9.88;8.88;;;16.50;99.90;;;;;;5068725;28;20052;-80
2023/07/24 05:05:31;;;;;;;10.10;9.10;;;16.50;99.90;;;;;;5053312;28;20040;-80
2023/07/24 05:07:56;;;;;;;9.80;8.70;;;16.60;99.90;;;;;;5077015;28;20609;-80
2023/07/24 05:10:22;;;;;;;11.02;9.93;;;16.60;99.90;;;;;;5089354;28;20076;-80
2023/07/24 05:12:48;;;;;;;9.85;8.85;;;16.50;99.90;;;;;;5087925;28;20401;-80
2023/07/24 05:15:16;;;;;;;9.43;8.43;;;16.50;99.90;;;;;;5056110;28;20068;-81
2023/07/24 05:17:43;;;;;;;10.10;8.90;;;16.80;99.90;;;;;;5086927;28;20395;-80
2023/07/24 05:20:09;;;;;;;12.77;9.43;;;16.60;99.90;;;;;;5071791;28;20055;-80
2023/07/24 05:22:35;;;;;;;9.90;9.00;;;16.60;99.90;;;;;;5084725;28;20060;-80
2023/07/24 05:25:00;;;;;;;10.57;9.57;;;16.60;99.90;;;;;;5072131;28;20074;-80
2023/07/24 05:27:26;;;;;;;9.95;8.98;;;16.70;99.90;;;;;;5088439;28;20460;-81
2023/07/24 05:29:52;;;;;;;11.48;9.02;;;16.70;99.90;;;;;;5090428;28;20448;-80
2023/07/24 05:32:17;;;;;;;10.77;9.38;;;16.80;99.90;;;;;;5078075;28;20418;-81
2023/07/24 05:34:43;;;;;;;10.13;9.13;;;16.80;99.90;;;;;;5070897;28;20470;-80
2023/07/24 05:37:09;;;;;;;11.05;9.90;;;16.90;99.90;;;;;;5088647;28;20047;-80
2023/07/24 05:39:35;;;;;;;11.52;10.35;;;17.00;99.90;;;;;;5069451;28;20051;-80
2023/07/24 05:42:00;;;;;;;10.30;9.30;;;17.00;99.90;;;;;;5073762;28;20048;-80
2023/07/24 05:44:26;;;;;;;10.75;9.27;;;17.10;99.90;;;;;;5088233;28;20048;-80
2023/07/24 05:46:52;;;;;;;11.88;9.00;;;17.10;99.90;;;;;;5088807;28;20097;-80
2023/07/24 05:49:17;;;;;;;10.02;9.00;;;17.20;99.90;;;;;;5085647;28;20040;-80
2023/07/24 05:51:43;;;;;;;10.55;9.30;;;17.30;99.90;;;;;;5085799;28;20121;-80
2023/07/24 05:54:09;;;;;;;11.98;8.82;;;17.30;99.90;;;;;;5072218;28;20386;-81
2023/07/24 05:56:34;;;;;;;9.65;8.73;;;17.40;99.90;;;;;;5053421;28;20044;-83
2023/07/24 05:59:00;;;;;;;10.85;9.80;;;17.30;99.90;;;;;;5075129;28;20127;-81
2023/07/24 06:01:25;;;;;;;9.68;8.77;;;17.40;99.90;;;;;;5068956;28;20380;-81
2023/07/24 06:03:51;;;;;;;10.27;8.93;;;17.40;99.90;;;;;;5088573;28;20377;-81
2023/07/24 06:06:16;;;;;;;10.25;9.02;;;17.60;99.90;;;;;;5087777;28;20048;-83
2023/07/24 06:08:42;;;;;;;9.98;8.57;;;17.50;99.90;;;;;;5071315;28;20633;-81
2023/07/24 06:11:08;;;;;;;10.02;8.55;;;17.50;99.90;;;;;;5060396;28;20097;-82
2023/07/24 06:13:33;;;;;;;10.23;9.00;;;17.50;99.90;;;;;;5067780;28;20071;-82
2023/07/24 06:15:59;;;;;;;10.35;8.80;;;17.60;99.90;;;;;;5050814;28;20083;-81
2023/07/24 06:18:24;;;;;;;9.73;8.77;;;17.70;99.90;;;;;;5067370;28;20131;-81
2023/07/24 06:20:54;;;;;;;9.45;8.30;;;17.40;99.90;;;;;;5074182;28;20044;-81
2023/07/24 06:23:19;;;;;;;9.20;8.35;;;18.00;99.90;;;;;;5088023;28;20074;-80
2023/07/24 06:25:45;;;;;;;10.57;8.70;;;17.80;99.90;;;;;;5070349;28;20079;-80
2023/07/24 06:28:10;;;;;;;9.82;8.82;;;17.90;99.90;;;;;;5087475;28;20051;-80
2023/07/24 06:30:38;;;;;;;9.20;8.30;;;18.10;99.90;;;;;;5081420;28;20056;-81
2023/07/24 06:33:04;;;;;;;9.68;8.63;;;18.80;99.90;;;;;;5067757;28;20647;-81
2023/07/24 06:35:29;;;;;;;10.20;9.20;;;18.80;99.90;;;;;;5049996;28;20056;-81
2023/07/24 06:37:55;;;;;;;9.90;8.90;;;19.00;99.90;;;;;;5050646;28;20036;-81
2023/07/24 06:40:20;;;;;;;8.63;7.78;;;19.00;99.90;;;;;;5069927;28;20079;-81
2023/07/24 06:42:46;;;;;;;8.82;8.02;;;19.10;99.90;;;;;;5089063;28;20046;-81
2023/07/24 06:45:12;;;;;;;8.60;7.80;;;19.40;99.90;;;;;;5086982;28;20410;-80
2023/07/24 06:47:38;;;;;;;9.88;8.18;;;19.60;99.90;;;;;;5070682;28;20084;-82
2023/07/24 06:50:04;;;;;;;9.00;8.10;;;19.70;99.90;;;;;;5086448;28;20071;-81
2023/07/24 06:52:31;;;;;;;8.90;7.75;;;19.80;99.90;;;;;;5054852;28;20044;-81
2023/07/24 06:54:58;;;;;;;8.55;7.75;;;19.90;99.90;;;;;;5078481;28;20048;-82
2023/07/24 06:57:24;;;;;;;9.57;7.57;;;19.80;99.90;;;;;;5067468;28;20070;-82
2023/07/24 06:59:49;;;;;;;9.63;7.90;;;19.60;99.90;;;;;;5067661;28;20806;-82
2023/07/24 07:02:15;;;;;;;12.65;7.10;;;19.60;99.90;;;;;;5068659;28;20842;-80
2023/07/24 07:04:41;;;;;;;10.57;7.10;;;19.40;99.90;;;;;;5086848;28;20044;-81
2023/07/24 07:07:06;;;;;;;8.13;7.25;;;19.30;99.90;;;;;;5087305;28;20163;-79
2023/07/24 07:09:32;;;;;;;8.35;7.10;;;19.40;99.90;;;;;;5088123;28;20050;-80
2023/07/24 07:11:57;;;;;;;8.48;7.35;;;19.40;99.90;;;;;;5087672;28;20134;-80
2023/07/24 07:14:23;;;;;;;10.95;6.95;;;19.40;99.90;;;;;;5086701;28;20040;-80
2023/07/24 07:16:49;;;;;;;10.40;7.60;;;19.30;99.90;;;;;;5082493;28;20044;-80
2023/07/24 07:19:14;;;;;;;9.98;7.53;;;19.10;99.90;;;;;;5088428;28;20097;-80
2023/07/24 07:21:40;;;;;;;7.95;6.85;;;19.10;99.90;;;;;;5084620;28;20390;-79
2023/07/24 07:24:06;;;;;;;8.32;6.80;;;19.10;99.90;;;;;;5085162;28;20050;-80
2023/07/24 07:26:31;;;;;;;9.07;6.93;;;19.20;99.90;;;;;;5086455;28;20078;-80
2023/07/24 07:28:57;;;;;;;8.93;6.82;;;19.30;99.90;;;;;;5086848;28;20123;-81
2023/07/24 07:31:22;;;;;;;7.38;6.60;;;19.30;99.90;;;;;;5085390;28;20136;-81
2023/07/24 07:33:48;;;;;;;9.20;6.70;;;19.30;99.90;;;;;;5066273;28;20059;-82
2023/07/24 07:36:14;;;;;;;9.38;6.75;;;19.30;99.90;;;;;;5065919;28;20041;-82
2023/07/24 07:38:40;;;;;;;8.10;6.93;;;19.50;99.90;;;;;;5050935;28;20063;-82
2023/07/24 07:41:06;;;;;;;8.48;7.00;;;19.50;99.90;;;;;;5066672;28;20084;-84
2023/07/24 07:43:32;;;;;;;8.13;5.78;;;19.60;99.90;;;;;;5066296;28;20090;-83
2023/07/24 07:45:59;;;;;;;8.95;7.40;;;19.70;99.90;;;;;;5066876;28;20140;-83
2023/07/24 07:48:24;;;;;;;10.95;8.23;;;19.70;99.90;;;;;;5067636;28;20135;-83
2023/07/24 07:50:51;;;;;;;9.48;7.20;;;19.70;99.90;;;;;;5066839;28;20179;-83
2023/07/24 07:53:17;;;;;;;8.82;7.28;;;19.80;99.90;;;;;;5049506;28;20048;-82
2023/07/24 07:55:42;;;;;;;9.65;6.93;;;19.80;99.90;;;;;;5066180;28;20044;-84
2023/07/24 07:58:08;;;;;;;8.10;7.30;;;20.10;99.90;;;;;;5074611;28;20098;-85
2023/07/24 08:00:34;;;;;;;10.23;6.95;;;19.70;99.90;;;;;;5067584;28;20080;-83
2023/07/24 08:03:00;;;;;;;9.27;6.57;;;20.30;99.90;;;;;;5082430;28;20790;-80
2023/07/24 08:05:26;;;;;;;8.75;6.57;;;20.00;99.90;;;;;;5065721;28;20075;-82
2023/07/24 08:07:51;;;;;;;8.05;6.63;;;20.00;99.90;;;;;;5078156;28;20048;-81
2023/07/24 08:10:17;;;;;;;9.27;6.80;;;20.10;99.90;;;;;;5082967;28;20040;-82
2023/07/24 08:12:44;;;;;;;9.75;6.75;;;20.00;99.90;;;;;;5083001;28;20044;-82
2023/07/24 08:15:10;;;;;;;8.52;6.70;;;19.90;99.90;;;;;;5066077;28;20050;-81
2023/07/24 08:17:35;;;;;;;10.75;7.07;;;19.90;99.90;;;;;;5070939;28;20691;-80
2023/07/24 08:20:02;;;;;;;10.80;6.85;;;19.90;99.90;;;;;;5065539;28;20045;-82
2023/07/24 08:22:27;;;;;;;7.65;6.68;;;20.00;99.90;;;;;;5076333;28;20124;-82
2023/07/24 08:24:54;;;;;;;9.77;6.40;;;20.00;99.90;;;;;;5069317;28;20119;-80
2023/07/24 08:27:19;;;;;;;7.75;6.35;;;20.40;99.90;;;;;;5069830;28;20387;-82
2023/07/24 08:29:45;;;;;;;8.85;6.35;;;20.20;99.90;;;;;;5059139;28;20106;-81
2023/07/24 08:32:10;;;;;;;8.00;6.65;;;20.20;99.90;;;;;;5071121;28;20075;-81
2023/07/24 08:34:37;;;;;;;10.52;6.40;;;20.20;99.90;;;;;;5080886;28;20102;-82
2023/07/24 08:37:03;;;;;;;9.65;6.93;;;20.30;99.90;;;;;;5070146;28;20044;-81
2023/07/24 08:39:30;;;;;;;10.35;6.68;;;20.50;99.90;;;;;;5088081;28;20172;-81
2023/07/24 08:41:56;;;;;;;8.65;6.80;;;20.70;99.90;;;;;;5077671;28;20216;-81
2023/07/24 08:44:25;;;;;;;9.98;6.38;;;20.60;99.90;;;;;;5084856;28;20510;-82
2023/07/24 08:46:52;;;;;;;8.40;6.45;;;21.00;99.90;;;;;;5085536;28;20048;-81
2023/07/24 08:49:18;;;;;;;8.35;6.70;;;20.70;99.90;;;;;;5068614;28;20040;-83
2023/07/24 08:51:44;;;;;;;10.00;7.03;;;20.70;99.90;;;;;;5072934;28;20059;-81
2023/07/24 08:54:11;;;;;;;10.48;7.00;;;20.70;99.90;;;;;;5087307;28;20120;-81
2023/07/24 08:56:39;;;;;;;11.13;7.00;;;21.00;99.90;;;;;;5087833;28;20078;-82
2023/07/24 08:59:05;;;;;;;10.73;7.18;;;21.00;99.90;;;;;;5079130;28;20511;-81
2023/07/24 09:01:31;;;;;;;9.85;7.47;;;21.00;99.90;;;;;;5067711;28;20076;-81
2023/07/24 09:03:57;;;;;;;10.95;7.25;;;21.10;99.90;;;;;;5051477;28;20044;-81
2023/07/24 09:06:22;;;;;;;8.80;6.97;;;21.20;99.90;;;;;;5067062;28;20062;-81
2023/07/24 09:08:48;;;;;;;12.43;6.63;;;21.20;99.90;;;;;;5068222;28;20076;-81
2023/07/24 09:11:14;;;;;;;8.20;6.45;;;21.30;99.90;;;;;;5068014;28;20054;-81
2023/07/24 09:13:43;;;;;;;8.30;5.75;;;21.00;99.90;;;;;;5067688;28;20047;-80
2023/07/24 09:16:20;;;;;;;8.60;6.35;;;21.30;99.90;;;;;;5067684;28;20048;-81
2023/07/24 09:18:45;;;;;;;7.95;6.45;;;21.30;99.90;;;;;;5068010;28;20671;-82
2023/07/24 09:21:14;;;;;;;7.38;5.90;;;21.20;99.90;;;;;;5066996;28;20037;-81
2023/07/24 09:23:40;;;;;;;7.05;5.88;;;21.00;99.90;;;;;;5067804;28;20445;-81
2023/07/24 09:26:07;;;;;;;7.13;5.70;;;21.00;99.90;;;;;;5067456;28;20048;-81
2023/07/24 09:28:34;;;;;;;8.05;5.72;;;21.00;99.90;;;;;;5067979;28;20128;-81
2023/07/24 09:31:04;;;;;;;9.25;5.95;;;20.80;99.90;;;;;;5066792;28;20068;-81
2023/07/24 09:33:39;;;;;;;6.82;5.72;;;20.90;99.90;;;;;;5081035;28;20174;-82
2023/07/24 09:36:09;;;;;;;8.35;5.85;;;20.90;99.90;;;;;;5055753;28;20048;-82
2023/07/24 09:38:35;;;;;;;7.70;5.47;;;21.30;99.90;;;;;;5068108;28;20114;-83
2023/07/24 09:41:02;;;;;;;7.82;5.47;;;21.30;99.90;;;;;;5049872;28;20048;-81
2023/07/24 09:43:29;;;;;;;9.90;5.60;;;21.50;99.90;;;;;;5051280;28;20044;-83
2023/07/24 09:45:55;;;;;;;7.97;6.00;;;21.60;99.90;;;;;;5074740;28;20051;-82
2023/07/24 09:48:23;;;;;;;8.07;6.65;;;21.60;99.90;;;;;;5070645;28;20048;-82
2023/07/24 09:50:54;;;;;;;7.40;5.28;;;21.90;99.90;;;;;;5081450;28;20524;-81
2023/07/24 09:53:41;;;;;;;6.18;5.05;;;22.20;99.90;;;;;;5077298;28;20742;-80
2023/07/24 09:56:08;;;;;;;9.27;5.35;;;22.40;99.90;;;;;;5071042;28;20487;-81
2023/07/24 09:58:39;;;;;;;7.32;5.10;;;22.60;99.90;;;;;;5067085;28;20055;-80
2023/07/24 10:01:09;;;;;;;6.90;5.20;;;22.70;99.90;;;;;;5066497;28;20471;-81
2023/07/24 10:03:40;;;;;;;10.75;6.45;;;22.70;99.90;;;;;;5062390;28;20055;-81
2023/07/24 10:06:10;;;;;;;7.78;5.28;;;22.80;99.90;;;;;;5089826;28;20044;-83
2023/07/24 10:08:36;;;;;;;8.57;6.28;;;22.80;99.90;;;;;;5093121;28;20056;-80
2023/07/24 10:11:03;;;;;;;6.13;5.00;;;22.80;99.90;;;;;;5071646;28;20220;-81
2023/07/24 10:13:29;;;;;;;8.02;5.20;;;22.80;99.90;;;;;;5086202;28;20051;-81
2023/07/24 10:15:55;;;;;;;9.27;5.05;;;22.80;99.90;;;;;;5066502;28;20052;-80
2023/07/24 10:18:27;;;;;;;7.47;5.72;;;23.00;99.90;;;;;;5074228;28;20123;-82
2023/07/24 10:21:07;;;;;;;9.98;5.03;;;23.10;99.90;;;;;;5090390;28;20055;-81
2023/07/24 10:23:42;;;;;;;7.75;5.72;;;23.00;99.90;;;;;;5088661;28;20036;-82
2023/07/24 10:26:08;;;;;;;9.80;5.25;;;23.10;99.90;;;;;;5089297;28;20047;-81
2023/07/24 10:28:38;;;;;;;6.05;4.90;;;22.80;99.90;;;;;;5074241;28;20039;-80
2023/07/24 10:31:20;;;;;;;7.22;4.95;;;22.80;99.90;;;;;;5068216;28;20055;-82
2023/07/24 10:33:46;;;;;;;5.80;4.82;;;23.10;99.90;;;;;;5068298;28;20052;-82
2023/07/24 10:36:16;;;;;;;6.78;5.30;;;23.40;99.90;;;;;;5069319;28;20063;-82
2023/07/24 10:38:42;;;;;;;7.60;5.18;;;23.30;99.90;;;;;;5073024;28;20087;-82
2023/07/24 10:41:10;;;;;;;8.85;5.72;;;23.20;99.90;;;;;;5068324;28;20052;-81
2023/07/24 10:43:46;;;;;;;6.72;5.90;;;23.10;99.90;;;;;;5068349;28;20185;-81
2023/07/24 10:46:13;;;;;;;6.35;5.28;;;23.20;99.90;;;;;;5067057;28;20048;-80
2023/07/24 10:48:45;;;;;;;6.53;5.35;;;23.50;99.90;;;;;;5081944;28;20604;-81
2023/07/24 10:51:10;;;;;;;;;;;23.60;99.90;;;;;;5077354;28;20056;-82
2023/07/24 10:53:37;;;;;;;9.30;6.43;;;23.70;99.90;;;;;;5069425;28;19920;-81
2023/07/24 10:56:04;;;;;;;7.60;5.85;;;23.30;99.90;;;;;;5068632;28;20036;-81
2023/07/24 10:58:29;;;;;;;5.63;4.85;;;23.30;99.90;;;;;;5067871;28;20121;-81
2023/07/24 11:00:56;;;;;;;6.88;4.85;;;23.10;99.90;;;;;;5068108;28;20594;-82
2023/07/24 11:03:22;;;;;;;8.40;5.00;;;23.30;99.90;;;;;;5067001;28;20037;-81
2023/07/24 11:05:47;;;;;;;5.97;4.90;;;23.40;99.90;;;;;;5065847;28;20097;-81
2023/07/24 11:08:18;;;;;;;7.10;5.40;;;23.60;99.90;;;;;;5065217;28;20047;-82
2023/07/24 11:10:52;;;;;;;6.68;4.65;;;23.60;99.90;;;;;;5048812;28;20049;-81
2023/07/24 11:13:26;;;;;;;8.10;5.13;;;23.60;99.90;;;;;;5048649;28;20056;-81
2023/07/24 11:15:52;;;;;;;6.90;4.80;;;23.60;99.90;;;;;;5066090;28;20048;-80
2023/07/24 11:18:21;;;;;;;6.45;4.50;;;23.50;99.90;;;;;;5078367;28;20439;-81
2023/07/24 11:20:55;;;;;;;7.45;5.07;;;23.90;99.90;;;;;;5069242;28;20123;-83
2023/07/24 11:23:22;;;;;;;10.18;5.32;;;23.70;99.90;;;;;;5086623;28;20382;-81
2023/07/24 11:25:51;;;;;;;6.90;5.28;;;23.60;99.90;;;;;;5086725;28;20036;-82
2023/07/24 11:28:17;;;;;;;6.05;5.10;;;23.50;99.90;;;;;;5083052;28;20576;-81
2023/07/24 11:30:43;;;;;;;6.30;5.00;;;23.40;99.90;;;;;;5080067;28;20060;-81
2023/07/24 11:33:11;;;;;;;8.38;5.55;;;23.30;99.90;;;;;;5068040;28;20053;-81
2023/07/24 11:35:39;;;;;;;7.82;5.38;;;23.30;99.90;;;;;;5066580;28;20387;-82
2023/07/24 11:38:07;;;;;;;5.72;5.05;;;23.20;99.90;;;;;;5078191;28;20059;-81
2023/07/24 11:40:41;;;;;;;7.63;4.72;;;23.10;99.90;;;;;;5086044;28;20056;-82
2023/07/24 11:43:21;;;;;;;6.65;5.10;;;23.10;99.90;;;;;;5087034;28;20044;-82
2023/07/24 11:45:53;;;;;;;6.78;5.03;;;23.00;99.90;;;;;;5085680;28;20082;-82
2023/07/24 11:48:19;;;;;;;;;;;22.80;99.90;;;;;;5086007;28;20043;-82
2023/07/24 11:50:47;;;;;;;8.05;5.53;;;22.60;99.90;;;;;;5075969;28;20047;-82
2023/07/24 11:53:23;;;;;;;10.05;5.38;;;22.60;99.90;;;;;;5067010;28;20052;-82
2023/07/24 11:55:50;;;;;;;7.82;5.07;;;22.70;99.90;;;;;;5066133;28;20041;-82
2023/07/24 11:58:16;;;;;;;7.13;5.35;;;22.70;99.90;;;;;;5065743;28;20048;-81
2023/07/24 12:00:42;;;;;;;9.55;5.80;;;22.80;99.90;;;;;;5066142;28;20240;-83
2023/07/24 12:03:08;;;;;;;9.30;5.72;;;23.00;99.90;;;;;;5084328;28;20044;-82
2023/07/24 12:05:44;;;;;;;7.15;5.70;;;23.10;99.90;;;;;;5090109;28;20528;-82
2023/07/24 12:08:10;;;;;;;9.95;5.85;;;23.20;99.90;;;;;;5079405;28;20041;-82
2023/07/24 12:10:40;;;;;;;7.80;5.13;;;23.40;99.90;;;;;;5054029;28;20548;-82
2023/07/24 12:13:06;;;;;;;6.25;5.60;;;23.40;99.90;;;;;;5070394;28;20564;-82
2023/07/24 12:15:35;;;;;;;7.82;5.63;;;23.60;99.90;;;;;;5053526;28;20481;-81
2023/07/24 12:18:04;;;;;;;6.63;5.10;;;23.50;99.90;;;;;;5070038;28;20486;-81
2023/07/24 12:20:33;;;;;;;8.23;5.78;;;23.50;99.90;;;;;;5070286;28;20134;-81
2023/07/24 12:23:02;;;;;;;7.90;5.55;;;23.40;99.90;;;;;;5069302;28;20135;-81
2023/07/24 12:25:27;;;;;;;7.13;5.38;;;23.40;99.90;;;;;;5051761;28;20054;-81
2023/07/24 12:27:53;;;;;;;6.32;5.15;;;23.40;99.90;;;;;;5053496;28;20041;-83
2023/07/24 12:30:19;;;;;;;8.07;5.00;;;23.60;99.90;;;;;;5068368;28;20056;-81
2023/07/24 12:32:47;;;;;;;7.57;5.50;;;23.60;99.90;;;;;;5069104;28;20075;-82
2023/07/24 12:35:13;;;;;;;6.35;4.95;;;23.60;99.90;;;;;;5069284;28;20052;-82
2023/07/24 12:37:39;;;;;;;6.43;4.95;;;23.50;99.90;;;;;;5069588;28;20178;-82
2023/07/24 12:40:05;;;;;;;9.15;5.15;;;23.50;99.90;;;;;;5069335;28;20048;-82
2023/07/24 12:42:31;;;;;;;7.47;4.50;;;23.30;99.90;;;;;;5069681;28;20048;-83